Flight Track Log - Related Links

Times and Time Zones

All times are in EDT time to prevent confusion due to time zone crossing. See the FDX1347 flight status page for this flight to view local times or setup timezone preferences in your user account.

Time Position Orientation Groundspeed Altitude Reporting Facility
EDT Latitude Longitude Course Direction KTS MPH feet Rate Location/Type
Thu 10:28:00 PM 42.7653 -73.8061 266° West 151 174 1,400  Level Boston Center
Thu 10:33:59 PM 42.7260 -74.4800 261° West 394 453 16,600 2,522 Climbing FlightAware ADS-B
Thu 10:34:42 PM 42.7130 -74.5880 261° West 401 461 18,300 2,118 Climbing FlightAware ADS-B
Thu 10:35:24 PM 42.7020 -74.6960 262° West 417 480 19,600 1,975 Climbing FlightAware ADS-B
Thu 10:36:01 PM 42.6950 -74.7930 264° West 422 486 20,900 2,100 Climbing FlightAware ADS-B
Thu 10:36:44 PM 42.6860 -74.9070 264° West 425 489 22,400 2,047 Climbing FlightAware ADS-B
Thu 10:37:26 PM 42.6570 -75.0100 249° West 424 488 23,800 1,857 Climbing FlightAware ADS-B
Thu 10:38:08 PM 42.6090 -75.1020 235° Southwest 428 493 25,000 1,643 Climbing FlightAware ADS-B
Thu 10:38:50 PM 42.5610 -75.1980 236° Southwest 433 498 26,100 1,537 Climbing FlightAware ADS-B
Thu 10:39:30 PM 42.5140 -75.2830 233° Southwest 437 503 27,100 1,395 Climbing FlightAware ADS-B
Thu 10:40:16 PM 42.4560 -75.3840 232° Southwest 441 507 28,100 672 Climbing FlightAware ADS-B
Thu 10:43:40 PM 42.3780 -75.5220 233° Southwest 436 502 29,900 1,788 Climbing FlightAware ADS-B
Thu 10:44:21 PM 42.1710 -75.8830 232° Southwest 395 455 35,400 4,683 Climbing FlightAware ADS-B
Thu 10:45:02 PM 42.1260 -75.9630 233° Southwest 393 452 36,300 1,216 Climbing FlightAware ADS-B
Thu 10:45:35 PM 42.0880 -76.0282 232° Southwest 391 450 36,900 957 Climbing FlightAware ADS-B
Thu 10:46:11 PM 42.0485 -76.0957 232° Southwest 393 452 37,400 783 Climbing FlightAware ADS-B
Thu 10:46:44 PM 42.0114 -76.1595 232° Southwest 395 455 37,800 571 Climbing FlightAware ADS-B
Thu 10:47:14 PM 41.9776 -76.2177 232° Southwest 397 457 38,000 200 Climbing FlightAware ADS-B
Thu 10:47:44 PM 41.9431 -76.2781 232° Southwest 398 458 38,000  Level FlightAware ADS-B
Thu 10:48:19 PM 41.9033 -76.3466 232° Southwest 403 464 38,000  Level FlightAware ADS-B
Thu 10:48:49 PM 41.8686 -76.4060 232° Southwest 406 467 38,000  Level FlightAware ADS-B
Thu 10:49:22 PM 41.8309 -76.4694 231° Southwest 407 468 38,000  Level FlightAware ADS-B
Thu 10:49:52 PM 41.7955 -76.5309 232° Southwest 408 470 38,000  Level FlightAware ADS-B
Thu 10:50:25 PM 41.7565 -76.5967 232° Southwest 411 473 38,000  Level FlightAware ADS-B
Thu 10:50:58 PM 41.7180 -76.6628 232° Southwest 412 474 38,000  Level FlightAware ADS-B
Thu 10:51:30 PM 41.6806 -76.7249 231° Southwest 414 476 38,000  Level FlightAware ADS-B
Thu 10:52:00 PM 41.6449 -76.7853 232° Southwest 415 478 38,000  Level FlightAware ADS-B
Thu 10:52:31 PM 41.6076 -76.8477 231° Southwest 417 480 38,000  Level FlightAware ADS-B
Thu 10:53:01 PM 41.5714 -76.9104 232° Southwest 419 482 38,000  Level FlightAware ADS-B
Thu 10:53:40 PM 41.5271 -76.9896 233° Southwest 421 484 38,000  Level FlightAware ADS-B
Thu 10:54:12 PM 41.4944 -77.0630 239° Southwest 422 486 38,000  Level FlightAware ADS-B
Thu 10:54:42 PM 41.4635 -77.1294 238° Southwest 422 486 38,000  Level FlightAware ADS-B
Thu 10:55:16 PM 41.4280 -77.2039 238° Southwest 424 488 38,000  Level FlightAware ADS-B
Thu 10:55:47 PM 41.3948 -77.2718 237° Southwest 424 488 38,000  Level FlightAware ADS-B
Thu 10:56:24 PM 41.3560 -77.3510 237° Southwest 424 488 38,000  Level FlightAware ADS-B
Thu 10:57:04 PM 41.3200 -77.4230 236° Southwest 426 490 38,000  Level FlightAware ADS-B
Thu 10:57:54 PM 41.2630 -77.5400 237° Southwest 428 493 38,000  Level FlightAware ADS-B
Thu 10:58:34 PM 41.2190 -77.6300 237° Southwest 431 496 38,000  Level FlightAware ADS-B
Thu 10:59:15 PM 41.1730 -77.7240 237° Southwest 434 499 38,000  Level FlightAware ADS-B
Thu 11:00:15 PM 41.1050 -77.8620 237° Southwest 436 502 38,000  Level FlightAware ADS-B
Thu 11:00:57 PM 41.0630 -77.9470 237° Southwest 436 502 38,000  Level FlightAware ADS-B
Thu 11:01:34 PM 41.0230 -78.0280 237° Southwest 437 503 38,000  Level FlightAware ADS-B
Thu 11:02:19 PM 40.9720 -78.1290 236° Southwest 438 504 38,000  Level FlightAware ADS-B
Thu 11:02:59 PM 40.9280 -78.2180 237° Southwest 438 504 38,000  Level FlightAware ADS-B
Thu 11:03:53 PM 40.8660 -78.3440 237° Southwest 440 506 38,000  Level FlightAware ADS-B
Thu 11:04:37 PM 40.8170 -78.4430 237° Southwest 442 509 38,000  Level FlightAware ADS-B
Thu 11:05:14 PM 40.7740 -78.5310 237° Southwest 442 509 38,000  Level FlightAware ADS-B
Thu 11:06:16 PM 40.7330 -78.6100 236° Southwest 442 509 38,000  Level FlightAware ADS-B
Thu 11:07:00 PM 40.6530 -78.7700 237° Southwest 436 502 38,000  Level FlightAware ADS-B
Thu 11:07:44 PM 40.6060 -78.8650 237° Southwest 432 497 38,000  Level FlightAware ADS-B
Thu 11:08:22 PM 40.5630 -78.9500 236° Southwest 433 498 38,000  Level FlightAware ADS-B
Thu 11:09:06 PM 40.5130 -79.0490 236° Southwest 437 503 38,000  Level FlightAware ADS-B
Thu 11:09:48 PM 40.4650 -79.1420 236° Southwest 435 501 38,000  Level FlightAware ADS-B
Thu 11:10:22 PM 40.4280 -79.2140 236° Southwest 436 502 38,000  Level FlightAware ADS-B
Thu 11:11:35 PM 40.3470 -79.3730 236° Southwest 439 505 38,000  Level FlightAware ADS-B
Thu 11:12:23 PM 40.2910 -79.4830 236° Southwest 436 502 38,000  Level FlightAware ADS-B
Thu 11:13:03 PM 40.2470 -79.5690 236° Southwest 437 503 38,000  Level FlightAware ADS-B
Thu 11:13:45 PM 40.1980 -79.6630 236° Southwest 435 501 38,000  Level FlightAware ADS-B
Thu 11:14:27 PM 40.1510 -79.7520 235° Southwest 434 499 38,000 146 Level FlightAware ADS-B
Thu 11:15:07 PM 40.1060 -79.8410 237° Southwest 436 502 38,200 714 Climbing FlightAware ADS-B
Thu 11:15:51 PM 40.0560 -79.9370 236° Southwest 434 499 39,000 918 Climbing FlightAware ADS-B
Thu 11:16:32 PM 40.0120 -80.0220 236° Southwest 436 502 39,500 723 Climbing FlightAware ADS-B
Thu 11:17:14 PM 39.9640 -80.1130 235° Southwest 438 504 40,000 349 Climbing FlightAware ADS-B
Thu 11:17:58 PM 39.9130 -80.2090 235° Southwest 438 504 40,000  Level FlightAware ADS-B
Thu 11:18:36 PM 39.8740 -80.2830 236° Southwest 438 504 40,000  Level FlightAware ADS-B
Thu 11:19:21 PM 39.8170 -80.3890 235° Southwest 441 507 40,000  Level FlightAware ADS-B
Thu 11:19:59 PM 39.7720 -80.4770 236° Southwest 442 509 40,000  Level FlightAware ADS-B
Thu 11:20:47 PM 39.7160 -80.5800 235° Southwest 445 512 40,000  Level FlightAware ADS-B
Thu 11:21:28 PM 39.6680 -80.6700 235° Southwest 447 514 40,000  Level FlightAware ADS-B
Thu 11:22:10 PM 39.6180 -80.7650 236° Southwest 449 517 40,000  Level FlightAware ADS-B
Thu 11:22:50 PM 39.5700 -80.8520 234° Southwest 451 519 40,000  Level FlightAware ADS-B
Thu 11:23:33 PM 39.5200 -80.9470 236° Southwest 450 518 40,000  Level FlightAware ADS-B
Thu 11:24:14 PM 39.4700 -81.0400 235° Southwest 449 517 40,000  Level FlightAware ADS-B
Thu 11:24:58 PM 39.4170 -81.1360 234° Southwest 448 516 40,000  Level FlightAware ADS-B
Thu 11:25:33 PM 39.4060 -81.1560 235° Southwest 448 516 40,000  Level FlightAware ADS-B
Thu 11:26:16 PM 39.3270 -81.3030 235° Southwest 447 514 40,000  Level FlightAware ADS-B
Thu 11:27:02 PM 39.2720 -81.4050 235° Southwest 445 512 40,000  Level FlightAware ADS-B
Thu 11:27:41 PM 39.2250 -81.4890 234° Southwest 442 509 40,000  Level FlightAware ADS-B
Thu 11:28:23 PM 39.1750 -81.5790 234° Southwest 440 506 40,000  Level FlightAware ADS-B
Thu 11:29:05 PM 39.1250 -81.6690 234° Southwest 439 505 40,000  Level FlightAware ADS-B
Thu 11:29:49 PM 39.0750 -81.7610 235° Southwest 437 503 40,000  Level FlightAware ADS-B
Thu 11:30:28 PM 39.0310 -81.8410 235° Southwest 435 501 40,000  Level FlightAware ADS-B
Thu 11:31:04 PM 38.9890 -81.9170 235° Southwest 434 499 40,000  Level FlightAware ADS-B
Thu 11:31:54 PM 38.9290 -82.0240 234° Southwest 435 501 40,000  Level FlightAware ADS-B
Thu 11:32:37 PM 38.8790 -82.1140 235° Southwest 434 499 40,000  Level FlightAware ADS-B
Thu 11:33:19 PM 38.8290 -82.2040 235° Southwest 434 499 40,000  Level FlightAware ADS-B
Thu 11:33:55 PM 38.7860 -82.2810 234° Southwest 434 499 40,000  Level FlightAware ADS-B
Thu 11:34:41 PM 38.7320 -82.3750 234° Southwest 432 497 40,000  Level FlightAware ADS-B
Thu 11:35:25 PM 38.6800 -82.4680 234° Southwest 432 497 40,000  Level FlightAware ADS-B
Thu 11:36:04 PM 38.6360 -82.5450 234° Southwest 432 497 40,000  Level FlightAware ADS-B
Thu 11:36:48 PM 38.5830 -82.6380 234° Southwest 433 498 40,000  Level FlightAware ADS-B
Thu 11:37:28 PM 38.5370 -82.7180 234° Southwest 433 498 40,000  Level FlightAware ADS-B
Thu 11:38:09 PM 38.4890 -82.8030 234° Southwest 433 498 40,000  Level FlightAware ADS-B
Thu 11:38:55 PM 38.4340 -82.9010 234° Southwest 435 501 40,000  Level FlightAware ADS-B
Thu 11:39:36 PM 38.3850 -82.9860 234° Southwest 435 501 40,000  Level FlightAware ADS-B
Thu 11:40:02 PM 38.3525 -83.0416 233° Southwest 436 502 40,000  Level FlightAware ADS-B
Thu 11:40:49 PM 38.2969 -83.1393 234° Southwest 440 506 40,000  Level FlightAware ADS-B
Thu 11:41:20 PM 38.2591 -83.2041 233° Southwest 440 506 40,000  Level FlightAware ADS-B
Thu 11:41:58 PM 38.2128 -83.2837 234° Southwest 441 507 40,000  Level FlightAware ADS-B
Thu 11:42:58 PM 38.1400 -83.4100 234° Southwest 449 517 40,000  Level FlightAware ADS-B
Thu 11:43:28 PM 38.1028 -83.4722 233° Southwest 451 519 40,000  Level FlightAware ADS-B
Thu 11:44:18 PM 38.0490 -83.5620 233° Southwest 451 519 40,000  Level FlightAware ADS-B
Thu 11:44:53 PM 37.9956 -83.6563 234° Southwest 454 522 40,000  Level FlightAware ADS-B
Thu 11:45:38 PM 37.9392 -83.7531 234° Southwest 458 527 40,000  Level FlightAware ADS-B
Thu 11:46:16 PM 37.8910 -83.8349 233° Southwest 459 528 40,000  Level FlightAware ADS-B
Thu 11:46:47 PM 37.8521 -83.8992 233° Southwest 457 526 40,000  Level FlightAware ADS-B
Thu 11:47:34 PM 37.7928 -83.9997 233° Southwest 457 526 40,000  Level FlightAware ADS-B
Thu 11:48:04 PM 37.7539 -84.0656 233° Southwest 454 522 40,000  Level FlightAware ADS-B
Thu 11:48:56 PM 37.6900 -84.1740 233° Southwest 454 522 40,000  Level FlightAware ADS-B
Thu 11:49:26 PM 37.6508 -84.2396 233° Southwest 455 524 40,000  Level FlightAware ADS-B
Thu 11:49:59 PM 37.6095 -84.3074 232° Southwest 456 525 40,000  Level FlightAware ADS-B
Thu 11:50:34 PM 37.5648 -84.3838 234° Southwest 456 525 40,000  Level FlightAware ADS-B
Thu 11:51:05 PM 37.5258 -84.4472 232° Southwest 456 525 40,000  Level FlightAware ADS-B
Thu 11:51:37 PM 37.4842 -84.5170 233° Southwest 455 524 40,000  Level FlightAware ADS-B
Thu 11:52:08 PM 37.4451 -84.5824 233° Southwest 454 522 40,000  Level FlightAware ADS-B
Thu 11:52:38 PM 37.4068 -84.6455 233° Southwest 454 522 40,000  Level FlightAware ADS-B
Thu 11:53:09 PM 37.3683 -84.7086 232° Southwest 454 522 40,000  Level FlightAware ADS-B
Thu 11:53:39 PM 37.3299 -84.7734 233° Southwest 453 521 40,000  Level FlightAware ADS-B
Thu 11:54:11 PM 37.2895 -84.8382 232° Southwest 452 520 40,000  Level FlightAware ADS-B
Thu 11:54:42 PM 37.2498 -84.9053 233° Southwest 454 522 40,000  Level FlightAware ADS-B
Thu 11:55:12 PM 37.2114 -84.9680 232° Southwest 454 522 40,000  Level FlightAware ADS-B
Thu 11:55:42 PM 37.1730 -85.0307 232° Southwest 455 524 40,000  Level FlightAware ADS-B
Thu 11:56:14 PM 37.1326 -85.0957 232° Southwest 456 525 40,000  Level FlightAware ADS-B
Thu 11:56:44 PM 37.0931 -85.1608 233° Southwest 457 526 40,000  Level FlightAware ADS-B
Thu 11:57:17 PM 37.0507 -85.2303 233° Southwest 459 528 40,000  Level FlightAware ADS-B
Thu 11:57:51 PM 37.0067 -85.3019 232° Southwest 460 529 40,000  Level FlightAware ADS-B
Thu 11:58:27 PM 36.9690 -85.3610 231° Southwest 460 529 40,000  Level FlightAware ADS-B
Thu 11:59:09 PM 36.9051 -85.4660 233° Southwest 460 529 40,000  Level FlightAware ADS-B
Thu 11:59:40 PM 36.8645 -85.5284 231° Southwest 462 532 40,000  Level FlightAware ADS-B
Thu 11:59:58 PM 36.8355 -85.5615 222° Southwest 475 547 40,000  Level FlightAware ADS-B
Fri 12:00:14 AM 36.8047 -85.5865 213° Southwest 487 560 40,000  Level FlightAware ADS-B
Fri 12:00:34 AM 36.7616 -85.6070 201° Southwest 498 573 40,000  Level FlightAware ADS-B
Fri 12:01:05 AM 36.6910 -85.6184 187° South 503 579 40,000  Level FlightAware ADS-B
Fri 12:01:17 AM 36.6639 -85.6237 189° South 493 567 40,000  Level FlightAware ADS-B
Fri 12:01:36 AM 36.6241 -85.6412 199° South 485 558 40,000  Level FlightAware ADS-B
Fri 12:01:51 AM 36.5948 -85.6644 212° Southwest 476 548 40,000  Level FlightAware ADS-B
Fri 12:02:56 AM 36.5140 -85.8020 234° Southwest 452 520 40,000  Level FlightAware ADS-B
Fri 12:03:40 AM 36.4720 -85.9030 243° Southwest 452 520 40,000  Level FlightAware ADS-B
Fri 12:04:21 AM 36.4322 -85.9971 242° Southwest 452 520 40,000  Level FlightAware ADS-B
Fri 12:05:04 AM 36.3910 -86.0930 242° Southwest 452 520 40,000  Level FlightAware ADS-B
Fri 12:05:42 AM 36.3650 -86.1530 242° Southwest 453 521 40,000  Level FlightAware ADS-B
Fri 12:07:50 AM 36.2259 -86.4778 242° Southwest 459 528 40,000  Level FlightAware ADS-B
Fri 12:08:21 AM 36.1946 -86.5501 242° Southwest 464 534 40,000  Level FlightAware ADS-B
Fri 12:09:02 AM 36.1534 -86.6471 242° Southwest 469 540 40,000  Level FlightAware ADS-B
Fri 12:09:32 AM 36.1260 -86.7198 245° Southwest 468 539 40,000 -120 Level FlightAware ADS-B
Fri 12:09:52 AM 36.1097 -86.7690 248° West 463 533 39,900 -1,059 Descending FlightAware ADS-B
Fri 12:10:23 AM 36.0853 -86.8453 248° West 464 534 39,100 -1,440 Descending FlightAware ADS-B
Fri 12:10:42 AM 36.0707 -86.8920 249° West 464 534 38,700 -1,050 Descending FlightAware ADS-B
Fri 12:11:03 AM 36.0489 -86.9386 240° Southwest 470 541 38,400 -923 Descending FlightAware ADS-B
Fri 12:11:08 AM 36.0415 -86.9515 235° Southwest 470 541 38,300 -1,091 Descending FlightAware ADS-B
Fri 12:11:25 AM 36.0157 -86.9845 226° Southwest 476 548 38,000 -1,000 Descending FlightAware ADS-B
Fri 12:11:32 AM 36.0048 -86.9966 222° Southwest 480 552 37,900 -1,765 Descending FlightAware ADS-B
Fri 12:11:42 AM 35.9867 -87.0108 212° Southwest 489 563 37,500 -2,211 Descending FlightAware ADS-B
Fri 12:11:51 AM 35.9677 -87.0248 211° Southwest 500 575 37,200 -1,895 Descending FlightAware ADS-B
Fri 12:12:01 AM 35.9476 -87.0354 203° Southwest 508 585 36,900 -2,211 Descending FlightAware ADS-B
Fri 12:12:10 AM 35.9260 -87.0448 199° South 517 595 36,500 -2,100 Descending FlightAware ADS-B
Fri 12:12:21 AM 35.9012 -87.0518 193° South 524 603 36,200 -577 Descending FlightAware ADS-B
Fri 12:13:02 AM 35.7990 -87.0637 185° South 533 613 36,000 -346 Descending FlightAware ADS-B
Fri 12:13:13 AM 35.7741 -87.0692 190° South 526 605 35,900 -1,043 Descending FlightAware ADS-B
Fri 12:13:25 AM 35.7448 -87.0807 198° South 518 596 35,600 -1,440 Descending FlightAware ADS-B
Fri 12:13:38 AM 35.7171 -87.0971 206° Southwest 509 586 35,300 -1,161 Descending FlightAware ADS-B
Fri 12:13:56 AM 35.6849 -87.1253 215° Southwest 490 564 35,000 -692 Descending FlightAware ADS-B
Fri 12:14:04 AM 35.6707 -87.1427 225° Southwest 482 555 35,000  Level FlightAware ADS-B
Fri 12:14:23 AM 35.6457 -87.1832 233° Southwest 468 539 35,000  Level FlightAware ADS-B
Fri 12:14:39 AM 35.6303 -87.2204 243° Southwest 456 525 35,000  Level FlightAware ADS-B
Fri 12:15:01 AM 35.6177 -87.2742 254° West 444 511 35,000  Level FlightAware ADS-B
Fri 12:15:41 AM 35.6130 -87.3710 267° West 438 504 35,000  Level FlightAware ADS-B
Fri 12:16:27 AM 35.6110 -87.4830 269° West 438 504 35,000  Level FlightAware ADS-B
Fri 12:17:19 AM 35.6080 -87.6010 268° West 437 503 35,000 -306 Level FlightAware ADS-B
Fri 12:18:05 AM 35.6050 -87.7270 268° West 430 495 34,500 -409 Descending FlightAware ADS-B
Fri 12:18:47 AM 35.6030 -87.8160 268° West 430 495 34,400 -76 Descending FlightAware ADS-B
Fri 12:19:24 AM 35.6000 -87.8930 267° West 430 495 34,400 -2,571 Level FlightAware ADS-B
Fri 12:20:11 AM 35.5970 -88.0360 269° West 433 498 30,800 -2,571 Descending FlightAware ADS-B
Fri 12:20:48 AM 35.5950 -88.1140 268° West 433 498 30,800 -2,122 Level FlightAware ADS-B
Fri 12:21:33 AM 35.5920 -88.2280 268° West 447 514 27,900 -2,148 Descending FlightAware ADS-B
Fri 12:22:09 AM 35.5890 -88.3060 267° West 447 514 27,900  Level FlightAware ADS-B
Fri 12:22:59 AM 35.5860 -88.4140 268° West 447 514 27,900  Level FlightAware ADS-B
Fri 12:23:35 AM 35.5840 -88.4920 268° West 447 514 27,900  Level FlightAware ADS-B
Fri 12:24:24 AM 35.5810 -88.5980 268° West 447 514 27,900 -5,077 Level FlightAware ADS-B
Fri 12:25:32 AM 35.3444 -88.6794 268° West 421 484 18,000 -5,672 Descending Memphis Center
Fri 12:26:32 AM 35.2664 -88.7753 225° Southwest 403 464 15,800 -2,200 Descending Memphis Center
Fri 12:27:32 AM 35.1861 -88.8758 226° Southwest 392 451 13,600 -2,200 Descending Memphis Center
Fri 12:28:32 AM 35.1164 -88.9658 227° Southwest 376 433 11,400 -1,700 Descending Memphis Center
Fri 12:29:32 AM 35.0483 -89.0508 226° Southwest 362 417 10,200 -1,200 Descending Memphis Center
Fri 12:30:32 AM 35.0347 -89.1447 260° West 306 352 9,000 -1,300 Descending Memphis Center
Fri 12:31:32 AM 35.0378 -89.2386 272° West 282 325 7,600 -1,450 Descending Memphis Center
Fri 12:32:32 AM 35.0386 -89.3325 271° West 277 319 6,100 -900 Descending Memphis Center
Fri 12:33:32 AM 35.0433 -89.4236 274° West 271 312 5,800 -700 Descending Memphis Center
Fri 12:35:32 AM 35.0508 -89.6139 273° West 276 318 4,000 -900 Descending Memphis Center
Fri 12:36:32 AM 35.0536 -89.7078 272° West 276 318 3,100 -600 Descending Memphis Center
Fri 12:37:32 AM 35.0561 -89.7889 272° West 259 298 2,800 -650 Descending Memphis Center
Fri 12:38:32 AM 35.0564 -89.8600 270° West 223 257 1,800 -915 Descending Memphis Center
Fri 12:39:30 AM 35.0500 -89.9000 259° West 155 178 1,000 -828 Descending KMEM
Fri 12:43:00 AM 35.0333 -89.9667 270° West  Level FlightAware Approximate
Fri 12:50:00 AM 35.0424 -89.9767 270° West  Level Estimated
Fri 12:51:00 AM 35.0424 -89.9767 270° West  Level Estimated
Fri 12:52:00 AM 35.0424 -89.9767 270° West  Level Estimated
Fri 12:53:00 AM 35.0424 -89.9767 270° West  Level Estimated
Fri 12:54:00 AM 35.0424 -89.9767 270° West  Level Estimated
Fri 12:55:00 AM 35.0424 -89.9767 270° West  Level Estimated
Fri 12:56:00 AM 35.0424 -89.9767 270° West  Level Estimated
Fri 12:57:00 AM 35.0424 -89.9767 270° West  Level Estimated
Fri 12:58:00 AM 35.0424 -89.9767 270° West  Level Estimated

Login

Don't have an account? Register now (free) for customized features, flight alerts, and more!